sensor_id;sensor_type;location;lat;lon;timestamp;P1;durP1;ratioP1;P2;durP2;ratioP2
64936;SDS011;51452;47.698;19.050;2023-08-01T00:01:29;2.00;;;1.50;;
64936;SDS011;51452;47.698;19.050;2023-08-01T00:03:55;2.78;;;1.70;;
64936;SDS011;51452;47.698;19.050;2023-08-01T00:06:20;2.10;;;1.70;;
64936;SDS011;51452;47.698;19.050;2023-08-01T00:08:47;3.80;;;1.90;;
64936;SDS011;51452;47.698;19.050;2023-08-01T00:11:12;2.63;;;1.60;;
64936;SDS011;51452;47.698;19.050;2023-08-01T00:13:39;3.28;;;1.75;;
64936;SDS011;51452;47.698;19.050;2023-08-01T00:16:05;3.05;;;1.80;;
64936;SDS011;51452;47.698;19.050;2023-08-01T00:18:31;2.30;;;1.42;;
64936;SDS011;51452;47.698;19.050;2023-08-01T00:20:57;4.20;;;1.70;;
64936;SDS011;51452;47.698;19.050;2023-08-01T00:23:24;5.57;;;1.60;;
64936;SDS011;51452;47.698;19.050;2023-08-01T00:25:50;2.45;;;1.50;;
64936;SDS011;51452;47.698;19.050;2023-08-01T00:28:17;3.78;;;1.70;;
64936;SDS011;51452;47.698;19.050;2023-08-01T00:30:43;3.10;;;1.88;;
64936;SDS011;51452;47.698;19.050;2023-08-01T00:33:09;4.35;;;1.65;;
64936;SDS011;51452;47.698;19.050;2023-08-01T00:35:34;2.85;;;1.60;;
64936;SDS011;51452;47.698;19.050;2023-08-01T00:37:59;4.53;;;1.80;;
64936;SDS011;51452;47.698;19.050;2023-08-01T00:40:29;1.90;;;1.40;;
64936;SDS011;51452;47.698;19.050;2023-08-01T00:42:58;3.40;;;1.50;;
64936;SDS011;51452;47.698;19.050;2023-08-01T00:45:24;2.38;;;1.70;;
64936;SDS011;51452;47.698;19.050;2023-08-01T00:47:54;4.00;;;1.60;;
64936;SDS011;51452;47.698;19.050;2023-08-01T00:50:20;6.68;;;1.80;;
64936;SDS011;51452;47.698;19.050;2023-08-01T00:52:47;5.55;;;1.92;;
64936;SDS011;51452;47.698;19.050;2023-08-01T00:55:14;4.15;;;1.58;;
64936;SDS011;51452;47.698;19.050;2023-08-01T00:57:40;3.40;;;1.65;;
64936;SDS011;51452;47.698;19.050;2023-08-01T01:00:07;4.35;;;1.80;;
64936;SDS011;51452;47.698;19.050;2023-08-01T01:02:33;2.33;;;1.40;;
64936;SDS011;51452;47.698;19.050;2023-08-01T01:05:00;2.70;;;1.55;;
64936;SDS011;51452;47.698;19.050;2023-08-01T01:07:26;3.72;;;1.77;;
64936;SDS011;51452;47.698;19.050;2023-08-01T01:09:53;5.05;;;1.60;;
64936;SDS011;51452;47.698;19.050;2023-08-01T01:12:19;3.20;;;1.50;;
64936;SDS011;51452;47.698;19.050;2023-08-01T01:14:44;2.80;;;1.63;;
64936;SDS011;51452;47.698;19.050;2023-08-01T01:17:09;3.22;;;1.70;;
64936;SDS011;51452;47.698;19.050;2023-08-01T01:19:35;2.10;;;1.33;;
64936;SDS011;51452;47.698;19.050;2023-08-01T01:22:01;4.60;;;1.70;;
64936;SDS011;51452;47.698;19.050;2023-08-01T01:24:29;3.47;;;1.67;;
64936;SDS011;51452;47.698;19.050;2023-08-01T01:26:55;4.15;;;1.55;;
64936;SDS011;51452;47.698;19.050;2023-08-01T01:29:22;3.35;;;1.70;;
64936;SDS011;51452;47.698;19.050;2023-08-01T01:31:48;4.22;;;1.98;;
64936;SDS011;51452;47.698;19.050;2023-08-01T01:34:15;4.78;;;1.70;;
64936;SDS011;51452;47.698;19.050;2023-08-01T01:36:40;4.10;;;1.70;;
64936;SDS011;51452;47.698;19.050;2023-08-01T01:39:05;2.45;;;1.67;;
64936;SDS011;51452;47.698;19.050;2023-08-01T01:41:31;4.15;;;1.92;;
64936;SDS011;51452;47.698;19.050;2023-08-01T01:43:56;3.00;;;1.60;;
64936;SDS011;51452;47.698;19.050;2023-08-01T01:49:06;4.28;;;1.63;;
64936;SDS011;51452;47.698;19.050;2023-08-01T01:51:32;6.47;;;2.13;;
64936;SDS011;51452;47.698;19.050;2023-08-01T01:53:57;6.05;;;1.92;;
64936;SDS011;51452;47.698;19.050;2023-08-01T01:56:22;4.05;;;1.70;;
64936;SDS011;51452;47.698;19.050;2023-08-01T01:58:48;5.25;;;1.90;;
64936;SDS011;51452;47.698;19.050;2023-08-01T02:01:13;2.63;;;1.73;;
64936;SDS011;51452;47.698;19.050;2023-08-01T02:03:39;2.90;;;1.50;;
64936;SDS011;51452;47.698;19.050;2023-08-01T02:06:04;4.78;;;1.85;;
64936;SDS011;51452;47.698;19.050;2023-08-01T02:08:30;2.63;;;1.50;;
64936;SDS011;51452;47.698;19.050;2023-08-01T02:10:55;4.82;;;1.65;;
64936;SDS011;51452;47.698;19.050;2023-08-01T02:13:23;3.05;;;1.73;;
64936;SDS011;51452;47.698;19.050;2023-08-01T02:15:51;5.20;;;1.58;;
64936;SDS011;51452;47.698;19.050;2023-08-01T02:18:16;5.78;;;1.75;;
64936;SDS011;51452;47.698;19.050;2023-08-01T02:20:42;4.80;;;1.80;;
64936;SDS011;51452;47.698;19.050;2023-08-01T02:23:07;3.80;;;1.60;;
64936;SDS011;51452;47.698;19.050;2023-08-01T02:25:33;6.43;;;2.15;;
64936;SDS011;51452;47.698;19.050;2023-08-01T02:28:06;5.65;;;1.77;;
64936;SDS011;51452;47.698;19.050;2023-08-01T02:30:32;2.58;;;1.60;;
64936;SDS011;51452;47.698;19.050;2023-08-01T02:32:58;4.43;;;1.77;;
64936;SDS011;51452;47.698;19.050;2023-08-01T02:35:23;5.28;;;2.63;;
64936;SDS011;51452;47.698;19.050;2023-08-01T02:37:49;5.97;;;1.80;;
64936;SDS011;51452;47.698;19.050;2023-08-01T02:40:14;4.50;;;2.03;;
64936;SDS011;51452;47.698;19.050;2023-08-01T02:42:39;2.95;;;1.60;;
64936;SDS011;51452;47.698;19.050;2023-08-01T02:45:05;8.05;;;1.83;;
64936;SDS011;51452;47.698;19.050;2023-08-01T02:47:31;6.25;;;1.80;;
64936;SDS011;51452;47.698;19.050;2023-08-01T02:49:56;6.82;;;1.63;;
64936;SDS011;51452;47.698;19.050;2023-08-01T02:52:21;5.40;;;1.90;;
64936;SDS011;51452;47.698;19.050;2023-08-01T02:54:47;6.28;;;1.70;;
64936;SDS011;51452;47.698;19.050;2023-08-01T02:57:12;4.15;;;1.70;;
64936;SDS011;51452;47.698;19.050;2023-08-01T02:59:37;3.03;;;2.00;;
64936;SDS011;51452;47.698;19.050;2023-08-01T03:02:03;3.20;;;1.77;;
64936;SDS011;51452;47.698;19.050;2023-08-01T03:04:28;4.88;;;1.65;;
64936;SDS011;51452;47.698;19.050;2023-08-01T03:06:54;7.70;;;2.92;;
64936;SDS011;51452;47.698;19.050;2023-08-01T03:09:19;4.68;;;1.88;;
64936;SDS011;51452;47.698;19.050;2023-08-01T03:11:44;3.95;;;1.55;;
64936;SDS011;51452;47.698;19.050;2023-08-01T03:14:12;4.68;;;2.00;;
64936;SDS011;51452;47.698;19.050;2023-08-01T03:16:38;4.50;;;1.85;;
64936;SDS011;51452;47.698;19.050;2023-08-01T03:19:03;3.17;;;1.75;;
64936;SDS011;51452;47.698;19.050;2023-08-01T03:21:32;5.25;;;1.98;;
64936;SDS011;51452;47.698;19.050;2023-08-01T03:23:58;3.22;;;1.70;;
64936;SDS011;51452;47.698;19.050;2023-08-01T03:26:24;6.38;;;1.80;;
64936;SDS011;51452;47.698;19.050;2023-08-01T03:28:49;3.40;;;1.88;;
64936;SDS011;51452;47.698;19.050;2023-08-01T03:31:14;5.22;;;1.90;;
64936;SDS011;51452;47.698;19.050;2023-08-01T03:33:40;5.72;;;1.88;;
64936;SDS011;51452;47.698;19.050;2023-08-01T03:36:08;3.85;;;1.60;;
64936;SDS011;51452;47.698;19.050;2023-08-01T03:38:34;4.28;;;1.80;;
64936;SDS011;51452;47.698;19.050;2023-08-01T03:40:59;4.65;;;2.10;;
64936;SDS011;51452;47.698;19.050;2023-08-01T03:43:24;3.63;;;1.63;;
64936;SDS011;51452;47.698;19.050;2023-08-01T03:45:50;5.50;;;1.73;;
64936;SDS011;51452;47.698;19.050;2023-08-01T03:48:16;4.57;;;1.50;;
64936;SDS011;51452;47.698;19.050;2023-08-01T03:50:41;8.30;;;2.72;;
64936;SDS011;51452;47.698;19.050;2023-08-01T03:53:07;8.20;;;2.20;;
64936;SDS011;51452;47.698;19.050;2023-08-01T03:55:32;3.05;;;1.70;;
64936;SDS011;51452;47.698;19.050;2023-08-01T03:57:58;3.33;;;1.90;;
64936;SDS011;51452;47.698;19.050;2023-08-01T04:00:23;3.20;;;2.03;;
64936;SDS011;51452;47.698;19.050;2023-08-01T04:02:49;6.00;;;2.15;;
64936;SDS011;51452;47.698;19.050;2023-08-01T04:05:14;6.38;;;2.10;;
64936;SDS011;51452;47.698;19.050;2023-08-01T04:07:39;7.72;;;2.42;;
64936;SDS011;51452;47.698;19.050;2023-08-01T04:10:06;6.63;;;2.75;;
64936;SDS011;51452;47.698;19.050;2023-08-01T04:12:32;7.18;;;2.58;;
64936;SDS011;51452;47.698;19.050;2023-08-01T04:14:58;4.50;;;2.20;;
64936;SDS011;51452;47.698;19.050;2023-08-01T04:17:24;3.15;;;1.90;;
64936;SDS011;51452;47.698;19.050;2023-08-01T04:19:49;5.13;;;1.98;;
64936;SDS011;51452;47.698;19.050;2023-08-01T04:22:15;4.45;;;2.45;;
64936;SDS011;51452;47.698;19.050;2023-08-01T04:24:40;7.50;;;2.42;;
64936;SDS011;51452;47.698;19.050;2023-08-01T04:27:06;4.88;;;2.30;;
64936;SDS011;51452;47.698;19.050;2023-08-01T04:29:31;9.85;;;3.03;;
64936;SDS011;51452;47.698;19.050;2023-08-01T04:31:57;7.95;;;2.45;;
64936;SDS011;51452;47.698;19.050;2023-08-01T04:34:22;9.48;;;2.10;;
64936;SDS011;51452;47.698;19.050;2023-08-01T04:36:48;6.40;;;2.03;;
64936;SDS011;51452;47.698;19.050;2023-08-01T04:39:13;5.80;;;2.15;;
64936;SDS011;51452;47.698;19.050;2023-08-01T04:41:44;6.40;;;2.10;;
64936;SDS011;51452;47.698;19.050;2023-08-01T04:44:09;4.30;;;2.08;;
64936;SDS011;51452;47.698;19.050;2023-08-01T04:46:35;7.10;;;2.53;;
64936;SDS011;51452;47.698;19.050;2023-08-01T04:49:00;7.63;;;1.80;;
64936;SDS011;51452;47.698;19.050;2023-08-01T04:51:25;3.85;;;1.90;;
64936;SDS011;51452;47.698;19.050;2023-08-01T04:53:51;5.00;;;2.15;;
64936;SDS011;51452;47.698;19.050;2023-08-01T04:56:19;5.53;;;1.98;;
64936;SDS011;51452;47.698;19.050;2023-08-01T04:58:45;3.80;;;1.95;;
64936;SDS011;51452;47.698;19.050;2023-08-01T05:01:13;7.85;;;2.05;;
64936;SDS011;51452;47.698;19.050;2023-08-01T05:03:38;4.70;;;1.60;;
64936;SDS011;51452;47.698;19.050;2023-08-01T05:06:04;4.65;;;1.85;;
64936;SDS011;51452;47.698;19.050;2023-08-01T05:08:34;4.22;;;1.70;;
64936;SDS011;51452;47.698;19.050;2023-08-01T05:11:16;3.80;;;1.80;;
64936;SDS011;51452;47.698;19.050;2023-08-01T05:13:47;6.55;;;2.67;;
64936;SDS011;51452;47.698;19.050;2023-08-01T05:16:13;3.47;;;1.73;;
64936;SDS011;51452;47.698;19.050;2023-08-01T05:18:39;2.45;;;1.77;;
64936;SDS011;51452;47.698;19.050;2023-08-01T05:21:08;6.85;;;2.55;;
64936;SDS011;51452;47.698;19.050;2023-08-01T05:23:35;4.20;;;1.90;;
64936;SDS011;51452;47.698;19.050;2023-08-01T05:26:04;5.63;;;1.85;;
64936;SDS011;51452;47.698;19.050;2023-08-01T05:28:29;4.57;;;1.70;;
64936;SDS011;51452;47.698;19.050;2023-08-01T05:30:55;5.70;;;1.70;;
64936;SDS011;51452;47.698;19.050;2023-08-01T05:33:20;6.45;;;2.25;;
64936;SDS011;51452;47.698;19.050;2023-08-01T05:35:46;4.97;;;2.00;;
64936;SDS011;51452;47.698;19.050;2023-08-01T05:38:23;3.60;;;1.73;;
64936;SDS011;51452;47.698;19.050;2023-08-01T05:40:51;4.00;;;2.05;;
64936;SDS011;51452;47.698;19.050;2023-08-01T05:43:17;4.88;;;1.88;;
64936;SDS011;51452;47.698;19.050;2023-08-01T05:45:42;5.10;;;2.00;;
64936;SDS011;51452;47.698;19.050;2023-08-01T05:48:08;4.18;;;1.98;;
64936;SDS011;51452;47.698;19.050;2023-08-01T05:50:33;4.75;;;2.10;;
64936;SDS011;51452;47.698;19.050;2023-08-01T05:53:02;5.95;;;2.20;;
64936;SDS011;51452;47.698;19.050;2023-08-01T05:55:28;7.10;;;2.05;;
64936;SDS011;51452;47.698;19.050;2023-08-01T05:57:53;4.97;;;2.10;;
64936;SDS011;51452;47.698;19.050;2023-08-01T06:00:19;4.03;;;1.98;;
64936;SDS011;51452;47.698;19.050;2023-08-01T06:02:47;4.28;;;2.35;;
64936;SDS011;51452;47.698;19.050;2023-08-01T06:05:13;8.40;;;2.95;;
64936;SDS011;51452;47.698;19.050;2023-08-01T06:07:38;11.13;;;2.90;;
64936;SDS011;51452;47.698;19.050;2023-08-01T06:10:04;8.73;;;3.15;;
64936;SDS011;51452;47.698;19.050;2023-08-01T06:12:32;4.88;;;2.30;;
64936;SDS011;51452;47.698;19.050;2023-08-01T06:14:58;6.68;;;2.40;;
64936;SDS011;51452;47.698;19.050;2023-08-01T06:17:26;4.05;;;2.13;;
64936;SDS011;51452;47.698;19.050;2023-08-01T06:20:02;10.07;;;2.42;;
64936;SDS011;51452;47.698;19.050;2023-08-01T06:22:33;5.30;;;2.33;;
64936;SDS011;51452;47.698;19.050;2023-08-01T06:25:02;7.40;;;2.42;;
64936;SDS011;51452;47.698;19.050;2023-08-01T06:27:37;12.30;;;2.17;;
64936;SDS011;51452;47.698;19.050;2023-08-01T06:30:03;3.55;;;1.95;;
64936;SDS011;51452;47.698;19.050;2023-08-01T06:32:30;9.40;;;2.78;;
64936;SDS011;51452;47.698;19.050;2023-08-01T06:35:24;3.47;;;2.15;;
64936;SDS011;51452;47.698;19.050;2023-08-01T06:37:49;4.32;;;2.20;;
64936;SDS011;51452;47.698;19.050;2023-08-01T06:40:17;3.85;;;1.98;;
64936;SDS011;51452;47.698;19.050;2023-08-01T06:42:43;9.23;;;2.40;;
64936;SDS011;51452;47.698;19.050;2023-08-01T06:45:09;6.63;;;2.20;;
64936;SDS011;51452;47.698;19.050;2023-08-01T06:47:37;6.15;;;2.28;;
64936;SDS011;51452;47.698;19.050;2023-08-01T06:50:03;4.32;;;2.45;;
64936;SDS011;51452;47.698;19.050;2023-08-01T06:52:29;7.57;;;2.58;;
64936;SDS011;51452;47.698;19.050;2023-08-01T06:54:55;3.55;;;2.10;;
64936;SDS011;51452;47.698;19.050;2023-08-01T06:57:20;3.70;;;1.90;;
64936;SDS011;51452;47.698;19.050;2023-08-01T06:59:46;4.50;;;2.28;;
64936;SDS011;51452;47.698;19.050;2023-08-01T07:02:11;5.72;;;2.10;;
64936;SDS011;51452;47.698;19.050;2023-08-01T07:04:44;6.60;;;2.47;;
64936;SDS011;51452;47.698;19.050;2023-08-01T07:07:10;4.68;;;2.40;;
64936;SDS011;51452;47.698;19.050;2023-08-01T07:09:46;4.75;;;2.45;;
64936;SDS011;51452;47.698;19.050;2023-08-01T07:12:17;3.60;;;2.33;;
64936;SDS011;51452;47.698;19.050;2023-08-01T07:14:52;5.05;;;2.25;;
64936;SDS011;51452;47.698;19.050;2023-08-01T07:17:18;7.35;;;2.72;;
64936;SDS011;51452;47.698;19.050;2023-08-01T07:19:44;5.13;;;2.58;;
64936;SDS011;51452;47.698;19.050;2023-08-01T07:22:12;4.68;;;2.30;;
64936;SDS011;51452;47.698;19.050;2023-08-01T07:24:40;7.50;;;2.30;;
64936;SDS011;51452;47.698;19.050;2023-08-01T07:27:22;5.28;;;2.70;;
64936;SDS011;51452;47.698;19.050;2023-08-01T07:29:50;4.32;;;2.45;;
64936;SDS011;51452;47.698;19.050;2023-08-01T07:32:34;12.18;;;2.78;;
64936;SDS011;51452;47.698;19.050;2023-08-01T07:35:03;6.45;;;2.47;;
64936;SDS011;51452;47.698;19.050;2023-08-01T07:37:33;4.22;;;2.20;;
64936;SDS011;51452;47.698;19.050;2023-08-01T07:40:03;8.40;;;2.75;;
64936;SDS011;51452;47.698;19.050;2023-08-01T07:42:30;5.97;;;2.85;;
64936;SDS011;51452;47.698;19.050;2023-08-01T07:47:35;9.32;;;2.95;;
64936;SDS011;51452;47.698;19.050;2023-08-01T07:50:01;7.80;;;2.88;;
64936;SDS011;51452;47.698;19.050;2023-08-01T07:52:29;6.25;;;2.85;;
64936;SDS011;51452;47.698;19.050;2023-08-01T07:54:58;8.88;;;2.55;;
64936;SDS011;51452;47.698;19.050;2023-08-01T07:57:36;5.95;;;2.67;;
64936;SDS011;51452;47.698;19.050;2023-08-01T08:00:10;7.10;;;3.42;;
64936;SDS011;51452;47.698;19.050;2023-08-01T08:02:45;7.90;;;3.47;;
64936;SDS011;51452;47.698;19.050;2023-08-01T08:05:19;11.45;;;4.43;;
64936;SDS011;51452;47.698;19.050;2023-08-01T08:07:48;7.15;;;3.88;;
64936;SDS011;51452;47.698;19.050;2023-08-01T08:10:16;8.52;;;4.03;;
64936;SDS011;51452;47.698;19.050;2023-08-01T08:12:42;10.38;;;4.47;;
64936;SDS011;51452;47.698;19.050;2023-08-01T08:15:10;9.15;;;4.22;;
64936;SDS011;51452;47.698;19.050;2023-08-01T08:17:38;6.43;;;3.55;;
64936;SDS011;51452;47.698;19.050;2023-08-01T08:20:04;7.97;;;3.97;;
64936;SDS011;51452;47.698;19.050;2023-08-01T08:22:36;8.45;;;3.40;;
64936;SDS011;51452;47.698;19.050;2023-08-01T08:25:07;9.65;;;3.30;;
64936;SDS011;51452;47.698;19.050;2023-08-01T08:27:48;8.70;;;2.97;;
64936;SDS011;51452;47.698;19.050;2023-08-01T08:30:30;8.73;;;2.30;;
64936;SDS011;51452;47.698;19.050;2023-08-01T08:33:02;7.28;;;2.50;;
64936;SDS011;51452;47.698;19.050;2023-08-01T08:35:45;4.80;;;2.30;;
64936;SDS011;51452;47.698;19.050;2023-08-01T08:38:18;5.32;;;2.15;;
64936;SDS011;51452;47.698;19.050;2023-08-01T08:43:59;4.82;;;2.25;;
64936;SDS011;51452;47.698;19.050;2023-08-01T08:50:19;7.43;;;2.28;;
64936;SDS011;51452;47.698;19.050;2023-08-01T08:52:51;6.88;;;2.58;;
64936;SDS011;51452;47.698;19.050;2023-08-01T08:55:23;4.20;;;2.00;;
64936;SDS011;51452;47.698;19.050;2023-08-01T08:57:58;3.55;;;2.22;;
64936;SDS011;51452;47.698;19.050;2023-08-01T09:00:48;4.95;;;2.47;;
64936;SDS011;51452;47.698;19.050;2023-08-01T09:03:32;6.78;;;2.20;;
64936;SDS011;51452;47.698;19.050;2023-08-01T09:09:12;4.85;;;1.90;;
64936;SDS011;51452;47.698;19.050;2023-08-01T09:11:40;5.90;;;1.88;;
64936;SDS011;51452;47.698;19.050;2023-08-01T09:14:39;3.10;;;1.65;;
64936;SDS011;51452;47.698;19.050;2023-08-01T09:17:10;5.00;;;2.20;;
64936;SDS011;51452;47.698;19.050;2023-08-01T09:19:43;3.88;;;1.92;;
64936;SDS011;51452;47.698;19.050;2023-08-01T09:22:11;4.13;;;2.00;;
64936;SDS011;51452;47.698;19.050;2023-08-01T09:24:57;8.05;;;1.80;;
64936;SDS011;51452;47.698;19.050;2023-08-01T09:27:38;3.40;;;2.00;;
64936;SDS011;51452;47.698;19.050;2023-08-01T09:30:11;7.68;;;1.70;;
64936;SDS011;51452;47.698;19.050;2023-08-01T09:35:19;5.50;;;2.63;;
64936;SDS011;51452;47.698;19.050;2023-08-01T09:37:45;5.97;;;1.73;;
64936;SDS011;51452;47.698;19.050;2023-08-01T09:40:15;4.53;;;1.80;;
64936;SDS011;51452;47.698;19.050;2023-08-01T09:42:44;3.83;;;2.10;;
64936;SDS011;51452;47.698;19.050;2023-08-01T09:47:49;3.78;;;2.00;;
64936;SDS011;51452;47.698;19.050;2023-08-01T09:50:29;4.22;;;2.00;;
64936;SDS011;51452;47.698;19.050;2023-08-01T09:52:55;4.07;;;1.73;;
64936;SDS011;51452;47.698;19.050;2023-08-01T09:55:48;5.95;;;2.40;;
64936;SDS011;51452;47.698;19.050;2023-08-01T09:58:21;4.30;;;2.10;;
64936;SDS011;51452;47.698;19.050;2023-08-01T10:00:54;4.28;;;2.13;;
64936;SDS011;51452;47.698;19.050;2023-08-01T10:06:32;2.53;;;1.70;;
64936;SDS011;51452;47.698;19.050;2023-08-01T10:09:02;3.13;;;1.70;;
64936;SDS011;51452;47.698;19.050;2023-08-01T10:11:29;3.33;;;1.90;;
64936;SDS011;51452;47.698;19.050;2023-08-01T10:14:03;3.58;;;1.60;;
64936;SDS011;51452;47.698;19.050;2023-08-01T10:16:28;3.28;;;1.73;;
64936;SDS011;51452;47.698;19.050;2023-08-01T10:18:58;4.07;;;1.75;;
64936;SDS011;51452;47.698;19.050;2023-08-01T10:21:33;5.22;;;2.00;;
64936;SDS011;51452;47.698;19.050;2023-08-01T10:23:59;4.80;;;2.00;;
64936;SDS011;51452;47.698;19.050;2023-08-01T10:26:30;4.18;;;1.70;;
64936;SDS011;51452;47.698;19.050;2023-08-01T10:28:58;4.93;;;1.60;;
64936;SDS011;51452;47.698;19.050;2023-08-01T10:31:27;6.38;;;1.80;;
64936;SDS011;51452;47.698;19.050;2023-08-01T10:34:06;3.03;;;1.63;;
64936;SDS011;51452;47.698;19.050;2023-08-01T10:36:40;5.75;;;1.67;;
64936;SDS011;51452;47.698;19.050;2023-08-01T10:39:09;4.78;;;1.63;;
64936;SDS011;51452;47.698;19.050;2023-08-01T10:41:46;2.65;;;1.80;;
64936;SDS011;51452;47.698;19.050;2023-08-01T10:44:28;3.17;;;1.90;;
64936;SDS011;51452;47.698;19.050;2023-08-01T10:49:36;2.42;;;1.65;;
64936;SDS011;51452;47.698;19.050;2023-08-01T10:52:22;4.35;;;1.48;;
64936;SDS011;51452;47.698;19.050;2023-08-01T10:55:01;2.67;;;1.52;;
64936;SDS011;51452;47.698;19.050;2023-08-01T10:57:31;4.68;;;1.75;;
64936;SDS011;51452;47.698;19.050;2023-08-01T11:00:06;3.85;;;2.08;;
64936;SDS011;51452;47.698;19.050;2023-08-01T11:02:35;9.88;;;1.85;;
64936;SDS011;51452;47.698;19.050;2023-08-01T11:05:06;6.40;;;1.92;;
64936;SDS011;51452;47.698;19.050;2023-08-01T11:07:35;4.40;;;1.58;;
64936;SDS011;51452;47.698;19.050;2023-08-01T11:10:05;2.80;;;1.83;;
64936;SDS011;51452;47.698;19.050;2023-08-01T11:12:42;6.40;;;1.73;;
64936;SDS011;51452;47.698;19.050;2023-08-01T11:15:09;4.18;;;1.70;;
64936;SDS011;51452;47.698;19.050;2023-08-01T11:17:36;5.22;;;1.60;;
64936;SDS011;51452;47.698;19.050;2023-08-01T11:20:09;3.55;;;1.80;;
64936;SDS011;51452;47.698;19.050;2023-08-01T11:22:36;2.67;;;1.63;;
64936;SDS011;51452;47.698;19.050;2023-08-01T11:25:05;4.10;;;1.60;;
64936;SDS011;51452;47.698;19.050;2023-08-01T11:27:42;4.15;;;1.50;;
64936;SDS011;51452;47.698;19.050;2023-08-01T11:30:17;3.25;;;1.58;;
64936;SDS011;51452;47.698;19.050;2023-08-01T11:32:57;3.40;;;1.70;;
64936;SDS011;51452;47.698;19.050;2023-08-01T11:35:23;4.63;;;1.60;;
64936;SDS011;51452;47.698;19.050;2023-08-01T11:37:49;3.67;;;1.40;;
64936;SDS011;51452;47.698;19.050;2023-08-01T11:40:21;3.25;;;1.73;;
64936;SDS011;51452;47.698;19.050;2023-08-01T11:42:56;3.47;;;1.52;;
64936;SDS011;51452;47.698;19.050;2023-08-01T11:45:27;6.20;;;2.30;;
64936;SDS011;51452;47.698;19.050;2023-08-01T11:48:00;6.95;;;2.30;;
64936;SDS011;51452;47.698;19.050;2023-08-01T11:50:29;5.03;;;1.85;;
64936;SDS011;51452;47.698;19.050;2023-08-01T11:53:05;8.48;;;2.60;;
64936;SDS011;51452;47.698;19.050;2023-08-01T11:55:31;3.35;;;1.55;;
64936;SDS011;51452;47.698;19.050;2023-08-01T11:58:03;4.90;;;1.67;;
64936;SDS011;51452;47.698;19.050;2023-08-01T12:00:29;3.53;;;1.60;;
64936;SDS011;51452;47.698;19.050;2023-08-01T12:03:10;2.70;;;1.70;;
64936;SDS011;51452;47.698;19.050;2023-08-01T12:05:44;3.75;;;1.80;;
64936;SDS011;51452;47.698;19.050;2023-08-01T12:08:19;2.70;;;1.58;;
64936;SDS011;51452;47.698;19.050;2023-08-01T12:10:48;4.22;;;1.58;;
64936;SDS011;51452;47.698;19.050;2023-08-01T12:13:26;2.58;;;1.70;;
64936;SDS011;51452;47.698;19.050;2023-08-01T12:15:52;4.53;;;1.60;;
64936;SDS011;51452;47.698;19.050;2023-08-01T12:18:29;9.10;;;1.63;;
64936;SDS011;51452;47.698;19.050;2023-08-01T12:21:25;7.05;;;1.70;;
64936;SDS011;51452;47.698;19.050;2023-08-01T12:24:05;3.67;;;1.63;;
64936;SDS011;51452;47.698;19.050;2023-08-01T12:26:31;4.95;;;1.60;;
64936;SDS011;51452;47.698;19.050;2023-08-01T12:28:56;2.60;;;1.80;;
64936;SDS011;51452;47.698;19.050;2023-08-01T12:31:22;3.70;;;1.40;;
64936;SDS011;51452;47.698;19.050;2023-08-01T12:33:48;5.53;;;1.63;;
64936;SDS011;51452;47.698;19.050;2023-08-01T12:36:14;4.97;;;1.50;;
64936;SDS011;51452;47.698;19.050;2023-08-01T12:38:40;3.05;;;1.65;;
64936;SDS011;51452;47.698;19.050;2023-08-01T12:41:06;7.85;;;1.60;;
64936;SDS011;51452;47.698;19.050;2023-08-01T12:43:31;6.80;;;1.65;;
64936;SDS011;51452;47.698;19.050;2023-08-01T12:45:57;3.65;;;1.50;;
64936;SDS011;51452;47.698;19.050;2023-08-01T12:48:23;6.47;;;1.67;;
64936;SDS011;51452;47.698;19.050;2023-08-01T12:50:49;5.18;;;1.55;;
64936;SDS011;51452;47.698;19.050;2023-08-01T12:53:15;3.20;;;1.40;;
64936;SDS011;51452;47.698;19.050;2023-08-01T12:55:42;3.25;;;1.80;;
64936;SDS011;51452;47.698;19.050;2023-08-01T12:58:09;4.03;;;1.45;;
64936;SDS011;51452;47.698;19.050;2023-08-01T13:00:34;6.18;;;1.55;;
64936;SDS011;51452;47.698;19.050;2023-08-01T13:02:59;3.72;;;1.42;;
64936;SDS011;51452;47.698;19.050;2023-08-01T13:05:25;4.03;;;1.80;;
64936;SDS011;51452;47.698;19.050;2023-08-01T13:07:50;3.28;;;2.05;;
64936;SDS011;51452;47.698;19.050;2023-08-01T13:10:16;4.15;;;1.48;;
64936;SDS011;51452;47.698;19.050;2023-08-01T13:12:41;3.72;;;1.70;;
64936;SDS011;51452;47.698;19.050;2023-08-01T13:15:06;4.57;;;1.58;;
64936;SDS011;51452;47.698;19.050;2023-08-01T13:17:32;10.02;;;2.05;;
64936;SDS011;51452;47.698;19.050;2023-08-01T13:19:58;5.00;;;1.83;;
64936;SDS011;51452;47.698;19.050;2023-08-01T13:22:23;3.50;;;1.80;;
64936;SDS011;51452;47.698;19.050;2023-08-01T13:24:48;4.85;;;1.58;;
64936;SDS011;51452;47.698;19.050;2023-08-01T13:27:14;6.30;;;1.80;;
64936;SDS011;51452;47.698;19.050;2023-08-01T13:29:39;2.80;;;1.65;;
64936;SDS011;51452;47.698;19.050;2023-08-01T13:32:05;3.30;;;1.50;;
64936;SDS011;51452;47.698;19.050;2023-08-01T13:34:31;4.60;;;1.90;;
64936;SDS011;51452;47.698;19.050;2023-08-01T13:36:57;9.52;;;1.98;;
64936;SDS011;51452;47.698;19.050;2023-08-01T13:39:22;3.55;;;1.75;;
64936;SDS011;51452;47.698;19.050;2023-08-01T13:41:47;3.20;;;1.70;;
64936;SDS011;51452;47.698;19.050;2023-08-01T13:44:13;5.35;;;2.17;;
64936;SDS011;51452;47.698;19.050;2023-08-01T13:46:38;3.35;;;1.70;;
64936;SDS011;51452;47.698;19.050;2023-08-01T13:49:04;4.97;;;1.80;;
64936;SDS011;51452;47.698;19.050;2023-08-01T13:51:32;4.10;;;1.90;;
64936;SDS011;51452;47.698;19.050;2023-08-01T13:53:58;2.97;;;1.73;;
64936;SDS011;51452;47.698;19.050;2023-08-01T13:56:24;4.78;;;2.22;;
64936;SDS011;51452;47.698;19.050;2023-08-01T13:58:50;4.93;;;1.73;;
64936;SDS011;51452;47.698;19.050;2023-08-01T14:01:16;6.05;;;2.42;;
64936;SDS011;51452;47.698;19.050;2023-08-01T14:03:43;9.80;;;1.80;;
64936;SDS011;51452;47.698;19.050;2023-08-01T14:06:13;4.15;;;1.70;;
64936;SDS011;51452;47.698;19.050;2023-08-01T14:08:40;5.93;;;2.10;;
64936;SDS011;51452;47.698;19.050;2023-08-01T14:11:07;7.80;;;1.65;;
64936;SDS011;51452;47.698;19.050;2023-08-01T14:13:34;3.90;;;1.67;;
64936;SDS011;51452;47.698;19.050;2023-08-01T14:15:59;3.45;;;1.40;;
64936;SDS011;51452;47.698;19.050;2023-08-01T14:18:26;3.00;;;1.80;;
64936;SDS011;51452;47.698;19.050;2023-08-01T14:20:52;5.13;;;1.83;;
64936;SDS011;51452;47.698;19.050;2023-08-01T14:23:18;3.88;;;1.40;;
64936;SDS011;51452;47.698;19.050;2023-08-01T14:25:44;2.47;;;1.33;;
64936;SDS011;51452;47.698;19.050;2023-08-01T14:28:09;5.35;;;1.60;;
64936;SDS011;51452;47.698;19.050;2023-08-01T14:30:36;6.00;;;1.70;;
64936;SDS011;51452;47.698;19.050;2023-08-01T14:33:08;5.72;;;1.60;;
64936;SDS011;51452;47.698;19.050;2023-08-01T14:36:17;3.10;;;1.77;;
64936;SDS011;51452;47.698;19.050;2023-08-01T14:38:42;5.57;;;1.80;;
64936;SDS011;51452;47.698;19.050;2023-08-01T14:41:08;3.03;;;1.77;;
64936;SDS011;51452;47.698;19.050;2023-08-01T14:43:33;2.83;;;1.83;;
64936;SDS011;51452;47.698;19.050;2023-08-01T14:46:00;3.47;;;1.70;;
64936;SDS011;51452;47.698;19.050;2023-08-01T14:48:26;6.60;;;1.88;;
64936;SDS011;51452;47.698;19.050;2023-08-01T14:50:52;3.13;;;1.55;;
64936;SDS011;51452;47.698;19.050;2023-08-01T14:53:17;6.75;;;1.58;;
64936;SDS011;51452;47.698;19.050;2023-08-01T14:55:42;4.47;;;1.50;;
64936;SDS011;51452;47.698;19.050;2023-08-01T14:58:08;4.57;;;1.60;;
64936;SDS011;51452;47.698;19.050;2023-08-01T15:00:36;4.78;;;1.50;;
64936;SDS011;51452;47.698;19.050;2023-08-01T15:03:02;2.92;;;1.80;;
64936;SDS011;51452;47.698;19.050;2023-08-01T15:05:27;4.97;;;1.98;;
64936;SDS011;51452;47.698;19.050;2023-08-01T15:07:52;3.53;;;1.83;;